Time;durP1;ratioP1;P1;durP2;ratioP2;P2;SDS_P1;SDS_P2;PMS_P1;PMS_P2;Temp;Humidity;BMP_temperature;BMP_pressure;BME280_temperature;BME280_humidity;BME280_pressure;Samples;Min_cycle;Max_cycle;Signal;HPM_P1;HPM_P2
2021/08/31 00:00:36;;;;;;;3.15;2.40;;;;;;;12.01;100.00;101471.25;4980251;28;20050;-86
2021/08/31 00:03:09;;;;;;;3.85;2.70;;;;;;;11.97;100.00;101479.16;4996021;28;20054;-85
2021/08/31 00:05:42;;;;;;;3.67;2.67;;;;;;;11.99;100.00;101477.00;4991362;28;20050;-85
2021/08/31 00:08:16;;;;;;;3.33;2.42;;;;;;;11.98;100.00;101483.53;4986204;28;20423;-84
2021/08/31 00:10:44;;;;;;;4.00;2.60;;;;;;;11.95;100.00;101478.63;4978872;28;20038;-85
2021/08/31 00:13:17;;;;;;;3.60;2.50;;;;;;;11.88;100.00;101475.31;4986212;28;20061;-85
2021/08/31 00:15:47;;;;;;;3.58;2.60;;;;;;;11.85;100.00;101476.66;4982585;28;20050;-85
2021/08/31 00:18:15;;;;;;;4.03;2.70;;;;;;;11.86;100.00;101478.31;4990643;28;20404;-86
2021/08/31 00:20:48;;;;;;;3.85;2.65;;;;;;;11.86;100.00;101474.75;4991571;28;20039;-84
2021/08/31 00:23:21;;;;;;;4.28;2.60;;;;;;;11.77;100.00;101471.72;4982475;28;20058;-84
2021/08/31 00:25:52;;;;;;;5.32;2.80;;;;;;;11.80;100.00;101484.00;4987975;28;20055;-85
2021/08/31 00:28:20;;;;;;;3.97;2.55;;;;;;;11.74;100.00;101480.44;4989864;28;20051;-86
2021/08/31 00:30:55;;;;;;;4.05;2.60;;;;;;;11.73;100.00;101481.53;4985607;28;20051;-84
2021/08/31 00:33:23;;;;;;;4.35;2.45;;;;;;;11.68;100.00;101478.78;4986795;28;20077;-85
2021/08/31 00:35:57;;;;;;;3.70;2.50;;;;;;;11.68;100.00;101479.63;4989238;28;20058;-85
2021/08/31 00:38:30;;;;;;;4.30;2.50;;;;;;;11.72;100.00;101490.78;4984433;28;20065;-84
2021/08/31 00:41:03;;;;;;;4.40;2.60;;;;;;;11.70;100.00;101490.25;4984444;28;20061;-84
2021/08/31 00:43:48;;;;;;;3.17;2.28;;;;;;;11.70;100.00;101485.59;4990672;28;20383;-84
2021/08/31 00:46:23;;;;;;;3.80;2.45;;;;;;;11.78;100.00;101489.72;4982525;28;20058;-84
2021/08/31 00:48:58;;;;;;;3.67;2.30;;;;;;;11.72;100.00;101496.25;4976359;28;20047;-84
2021/08/31 00:51:32;;;;;;;3.45;2.40;;;;;;;11.71;100.00;101498.16;4988545;28;20054;-84
2021/08/31 00:54:05;;;;;;;4.18;2.25;;;;;;;11.71;100.00;101486.41;4990828;28;20054;-85
2021/08/31 00:56:38;;;;;;;3.28;2.30;;;;;;;11.76;100.00;101491.09;4990214;28;20050;-85
2021/08/31 00:59:12;;;;;;;2.55;2.08;;;;;;;11.77;100.00;101501.72;4984544;28;20050;-84
2021/08/31 01:01:47;;;;;;;3.25;2.13;;;;;;;11.73;100.00;101506.06;4985674;28;20054;-82
2021/08/31 01:04:20;;;;;;;3.60;2.22;;;;;;;11.78;100.00;101497.91;4983409;28;20053;-84
2021/08/31 01:06:54;;;;;;;4.95;2.30;;;;;;;11.78;100.00;101495.19;4978389;28;20038;-85
2021/08/31 01:09:28;;;;;;;4.50;2.13;;;;;;;11.82;100.00;101495.44;4980120;28;20054;-85
2021/08/31 01:12:02;;;;;;;5.40;2.30;;;;;;;11.79;100.00;101494.09;4983464;28;20475;-84
2021/08/31 01:14:35;;;;;;;3.08;2.17;;;;;;;11.73;100.00;101493.25;5004589;28;20055;-85
2021/08/31 01:17:10;;;;;;;3.22;2.00;;;;;;;11.75;100.00;101490.25;4981716;28;20050;-84
2021/08/31 01:19:44;;;;;;;3.88;2.25;;;;;;;11.70;100.00;101485.59;4991219;28;20042;-85
2021/08/31 01:22:17;;;;;;;2.65;1.80;;;;;;;11.79;100.00;101496.81;4979561;28;20079;-84
2021/08/31 01:24:56;;;;;;;2.90;2.00;;;;;;;11.71;100.00;101492.72;4993802;28;20061;-85
2021/08/31 01:27:29;;;;;;;2.95;2.00;;;;;;;11.69;100.00;101500.31;4993807;28;20046;-86
2021/08/31 01:30:03;;;;;;;2.92;1.90;;;;;;;11.74;100.00;101492.16;4988272;28;20058;-85
2021/08/31 01:32:36;;;;;;;2.67;2.00;;;;;;;11.68;100.00;101506.03;4978245;28;20050;-85
2021/08/31 01:35:05;;;;;;;2.90;2.00;;;;;;;11.57;100.00;101499.72;4993298;28;20483;-84
2021/08/31 01:37:39;;;;;;;3.17;2.05;;;;;;;11.56;100.00;101503.56;4993746;28;20062;-85
2021/08/31 01:40:14;;;;;;;3.63;1.73;;;;;;;11.53;100.00;101495.91;5009970;28;20053;-85
2021/08/31 01:42:48;;;;;;;3.92;1.90;;;;;;;11.55;100.00;101494.53;4982097;28;20042;-84
2021/08/31 01:45:21;;;;;;;2.13;1.77;;;;;;;11.39;100.00;101479.22;4993434;28;20050;-85
2021/08/31 01:47:49;;;;;;;2.38;1.75;;;;;;;11.52;100.00;101497.00;4981955;28;20063;-86
2021/08/31 01:50:22;;;;;;;2.72;1.90;;;;;;;11.40;100.00;101498.00;4987321;28;20054;-86
2021/08/31 01:52:51;;;;;;;3.20;2.13;;;;;;;11.36;100.00;101504.28;4993674;28;20065;-85
2021/08/31 01:55:26;;;;;;;2.38;1.92;;;;;;;11.35;100.00;101502.63;4994873;28;20057;-86
2021/08/31 01:57:59;;;;;;;2.55;1.80;;;;;;;11.33;100.00;101496.63;4994901;28;20061;-86
2021/08/31 02:00:33;;;;;;;4.40;2.22;;;;;;;11.31;100.00;101488.72;5006683;28;20065;-86
2021/08/31 02:03:06;;;;;;;4.78;2.03;;;;;;;11.28;100.00;101489.22;4991839;28;20046;-86
2021/08/31 02:05:39;;;;;;;3.08;2.05;;;;;;;11.23;100.00;101487.31;4980984;28;20393;-85
2021/08/31 02:08:13;;;;;;;3.28;2.10;;;;;;;11.15;100.00;101487.00;5005482;28;20066;-86
2021/08/31 02:10:43;;;;;;;3.30;2.22;;;;;;;11.14;100.00;101497.06;4980611;28;20514;-86
2021/08/31 02:13:11;;;;;;;3.30;2.00;;;;;;;11.19;100.00;101494.38;4985846;28;20165;-85
2021/08/31 02:15:39;;;;;;;4.95;2.55;;;;;;;11.16;100.00;101494.91;4987023;28;20494;-86
2021/08/31 02:18:13;;;;;;;5.65;2.80;;;;;;;11.15;100.00;101500.63;4980728;28;20501;-85
2021/08/31 02:20:46;;;;;;;3.92;2.40;;;;;;;11.25;100.00;101506.13;4994555;28;20410;-85
2021/08/31 02:23:14;;;;;;;4.90;2.30;;;;;;;11.23;100.00;101503.66;4987125;28;20118;-85
2021/08/31 02:25:49;;;;;;;4.45;2.10;;;;;;;11.18;100.00;101502.81;4993099;28;20724;-86
2021/08/31 02:28:22;;;;;;;3.60;2.15;;;;;;;11.22;100.00;101501.19;4992899;28;20043;-87
2021/08/31 02:30:50;;;;;;;3.25;2.20;;;;;;;11.19;100.00;101488.94;4987536;28;20049;-85
2021/08/31 02:33:23;;;;;;;4.90;2.40;;;;;;;11.07;100.00;101512.81;4993154;28;20054;-85
2021/08/31 02:35:58;;;;;;;4.35;2.42;;;;;;;11.26;100.00;101504.22;4988530;28;20038;-85
2021/08/31 02:38:31;;;;;;;3.40;2.28;;;;;;;11.17;100.00;101495.72;4993585;28;20035;-86
2021/08/31 02:41:06;;;;;;;3.22;2.30;;;;;;;11.23;100.00;101500.13;4992897;28;20479;-85
2021/08/31 02:43:39;;;;;;;3.70;2.20;;;;;;;11.22;100.00;101503.94;4985063;28;20139;-86
2021/08/31 02:46:12;;;;;;;3.92;2.13;;;;;;;11.27;100.00;101501.25;4984481;28;20057;-85
2021/08/31 02:48:45;;;;;;;3.80;2.13;;;;;;;11.29;100.00;101496.31;4993392;28;20660;-85
2021/08/31 02:51:19;;;;;;;3.50;2.15;;;;;;;11.34;100.00;101495.56;4992185;28;20054;-85
2021/08/31 02:53:52;;;;;;;3.15;2.10;;;;;;;11.22;100.00;101496.56;4993059;28;20101;-84
2021/08/31 02:56:27;;;;;;;3.53;2.20;;;;;;;11.25;100.00;101478.06;4992450;28;20050;-85
2021/08/31 02:59:00;;;;;;;4.43;2.35;;;;;;;11.38;100.00;101502.94;4990181;28;20035;-84
2021/08/31 03:01:34;;;;;;;3.50;2.10;;;;;;;11.37;100.00;101495.81;5003277;28;20062;-86
2021/08/31 03:04:07;;;;;;;3.75;2.30;;;;;;;11.31;100.00;101493.34;4994314;28;20067;-84
2021/08/31 03:06:40;;;;;;;3.20;2.10;;;;;;;11.45;100.00;101505.41;4990825;28;20140;-84
2021/08/31 03:09:08;;;;;;;4.18;2.00;;;;;;;11.34;100.00;101496.38;4990513;28;20050;-86
2021/08/31 03:11:43;;;;;;;4.13;2.38;;;;;;;11.31;100.00;101501.50;4992516;28;20065;-85
2021/08/31 03:14:19;;;;;;;3.22;2.10;;;;;;;11.36;100.00;101502.34;4989147;28;20039;-85
2021/08/31 03:16:47;;;;;;;4.18;2.25;;;;;;;11.48;100.00;101491.25;4985343;28;20042;-85
2021/08/31 03:19:16;;;;;;;4.53;2.47;;;;;;;11.32;100.00;101486.81;4980470;28;20061;-85
2021/08/31 03:21:44;;;;;;;3.47;2.33;;;;;;;11.17;100.00;101488.38;4992216;28;20053;-86
2021/08/31 03:24:18;;;;;;;3.97;2.47;;;;;;;11.19;100.00;101497.09;4988587;28;20058;-86
2021/08/31 03:26:53;;;;;;;4.40;2.30;;;;;;;11.30;100.00;101500.69;4980687;28;20394;-85
2021/08/31 03:29:27;;;;;;;3.45;2.20;;;;;;;11.46;100.00;101503.50;4983122;28;20403;-84
2021/08/31 03:32:00;;;;;;;3.42;2.13;;;;;;;11.33;100.00;101488.47;4990048;28;20054;-85
2021/08/31 03:34:33;;;;;;;4.30;2.28;;;;;;;11.44;100.00;101497.50;4984845;28;20058;-84
2021/08/31 03:37:07;;;;;;;3.70;2.30;;;;;;;11.35;100.00;101495.28;4988782;28;20042;-85
2021/08/31 03:39:40;;;;;;;3.17;2.20;;;;;;;11.28;100.00;101496.59;4993415;28;20410;-85
2021/08/31 03:42:14;;;;;;;3.38;2.15;;;;;;;11.35;100.00;101494.44;4992064;28;20471;-85
2021/08/31 03:44:43;;;;;;;3.85;2.13;;;;;;;11.29;100.00;101500.97;4986993;28;20042;-86
2021/08/31 03:47:16;;;;;;;3.70;2.05;;;;;;;11.33;100.00;101496.63;4994255;28;20038;-85
2021/08/31 03:49:49;;;;;;;3.60;2.22;;;;;;;11.32;100.00;101500.44;4997297;28;20471;-86
2021/08/31 03:52:22;;;;;;;2.80;1.95;;;;;;;11.42;100.00;101500.50;4978005;28;20395;-85
2021/08/31 03:54:55;;;;;;;3.70;2.20;;;;;;;11.28;100.00;101504.78;4982592;28;20051;-86
2021/08/31 03:57:30;;;;;;;4.35;2.40;;;;;;;11.04;100.00;101462.41;5001926;28;20057;-85
2021/08/31 04:00:05;;;;;;;3.95;2.17;;;;;;;11.19;100.00;101499.81;5005079;28;20073;-86
2021/08/31 04:02:38;;;;;;;3.75;2.38;;;;;;;11.23;100.00;101506.38;4990225;28;20049;-85
2021/08/31 04:05:08;;;;;;;3.60;2.30;;;;;;;11.10;100.00;101517.75;4986004;28;20507;-85
2021/08/31 04:07:41;;;;;;;3.58;2.38;;;;;;;11.20;100.00;101512.38;4989355;28;20058;-85
2021/08/31 04:10:10;;;;;;;4.15;2.42;;;;;;;11.02;100.00;101520.94;4975111;28;20043;-86
2021/08/31 04:12:45;;;;;;;4.40;2.40;;;;;;;11.09;100.00;101518.84;4985844;28;20062;-85
2021/08/31 04:15:13;;;;;;;4.28;2.45;;;;;;;11.14;100.00;101520.78;4986533;28;20065;-85
2021/08/31 04:17:46;;;;;;;4.60;2.45;;;;;;;11.08;100.00;101527.28;4991568;28;20051;-86
2021/08/31 04:20:20;;;;;;;5.03;2.63;;;;;;;11.13;100.00;101516.41;4984279;28;20589;-85
2021/08/31 04:22:53;;;;;;;4.13;2.38;;;;;;;11.20;100.00;101519.72;4991619;28;20054;-85
2021/08/31 04:25:22;;;;;;;3.85;2.30;;;;;;;11.13;100.00;101530.00;4991569;28;20065;-85
2021/08/31 04:27:51;;;;;;;3.20;2.20;;;;;;;11.14;100.00;101523.50;4989972;28;20050;-86
2021/08/31 04:30:24;;;;;;;4.40;2.65;;;;;;;11.05;100.00;101525.91;4991907;28;20494;-86
2021/08/31 04:32:59;;;;;;;4.32;2.38;;;;;;;11.03;100.00;101518.00;4989635;28;20043;-87
2021/08/31 04:35:27;;;;;;;4.47;2.60;;;;;;;10.99;100.00;101521.47;4991849;28;20057;-86
2021/08/31 04:38:00;;;;;;;4.80;2.50;;;;;;;11.00;100.00;101536.75;4991815;28;20050;-87
2021/08/31 04:41:03;;;;;;;4.97;2.42;;;;;;;11.05;100.00;101534.88;4988363;28;20053;-86
2021/08/31 04:43:38;;;;;;;4.25;2.40;;;;;;;11.04;100.00;101533.22;4985609;28;20050;-86
2021/08/31 04:46:11;;;;;;;3.35;2.25;;;;;;;11.06;100.00;101536.53;4987396;28;20525;-86
2021/08/31 04:48:44;;;;;;;3.25;2.22;;;;;;;11.02;100.00;101546.31;4992169;28;20058;-87
2021/08/31 04:51:13;;;;;;;4.25;2.20;;;;;;;11.03;100.00;101556.13;4985398;28;20059;-86
2021/08/31 04:53:41;;;;;;;3.78;2.50;;;;;;;11.19;100.00;101548.06;4991447;28;20379;-86
2021/08/31 04:56:09;;;;;;;4.32;2.42;;;;;;;11.20;100.00;101552.44;4987071;28;20058;-87
2021/08/31 04:58:44;;;;;;;4.30;2.45;;;;;;;11.15;100.00;101552.38;4995134;28;20058;-87
2021/08/31 05:01:12;;;;;;;3.83;2.38;;;;;;;11.34;100.00;101548.16;5003146;28;20066;-86
2021/08/31 05:03:46;;;;;;;4.55;2.40;;;;;;;11.26;100.00;101540.47;4995649;28;20046;-86
2021/08/31 05:06:20;;;;;;;3.88;2.20;;;;;;;11.43;100.00;101544.91;4996698;28;20051;-86
2021/08/31 05:08:48;;;;;;;3.17;2.05;;;;;;;11.51;100.00;101525.34;4995697;28;20057;-87
2021/08/31 05:11:21;;;;;;;4.35;2.05;;;;;;;12.11;100.00;101552.31;4983610;28;20061;-87
2021/08/31 05:13:55;;;;;;;4.07;2.00;;;;;;;12.24;100.00;101557.25;4996640;28;20039;-86
2021/08/31 05:16:29;;;;;;;2.90;1.85;;;;;;;12.05;100.00;101549.56;4988276;28;20050;-86
2021/08/31 05:19:02;;;;;;;3.63;2.00;;;;;;;12.09;100.00;101547.13;4985159;28;20049;-86
2021/08/31 05:21:35;;;;;;;3.25;1.88;;;;;;;12.04;100.00;101547.09;4982385;28;20059;-87
2021/08/31 05:24:08;;;;;;;2.83;1.92;;;;;;;12.12;100.00;101549.31;4987081;28;20406;-87
2021/08/31 05:26:36;;;;;;;2.80;2.00;;;;;;;12.04;100.00;101552.56;4989077;28;20079;-87
2021/08/31 05:29:06;;;;;;;3.33;2.00;;;;;;;12.02;100.00;101555.56;4995773;28;20591;-87
2021/08/31 05:31:34;;;;;;;2.58;1.83;;;;;;;12.20;100.00;101556.97;4991566;28;20518;-85
2021/08/31 05:34:08;;;;;;;2.80;1.85;;;;;;;12.14;100.00;101557.22;4992472;28;20058;-87
2021/08/31 05:36:41;;;;;;;3.72;2.13;;;;;;;12.14;100.00;101543.56;4994899;28;20104;-87
2021/08/31 05:39:09;;;;;;;3.17;2.10;;;;;;;12.16;100.00;101535.97;4994045;28;20055;-85
2021/08/31 05:41:42;;;;;;;4.10;2.35;;;;;;;12.35;100.00;101552.66;4993792;28;20058;-85
2021/08/31 05:44:12;;;;;;;4.70;2.30;;;;;;;12.31;100.00;101555.09;4993685;28;20077;-87
2021/08/31 05:46:45;;;;;;;2.92;2.03;;;;;;;12.35;100.00;101552.66;4994565;28;20058;-85
2021/08/31 05:49:18;;;;;;;3.83;2.35;;;;;;;12.40;100.00;101566.28;4989161;28;20043;-86
2021/08/31 05:51:51;;;;;;;3.13;2.05;;;;;;;12.48;100.00;101559.50;4991041;28;20062;-85
2021/08/31 05:54:26;;;;;;;5.10;2.30;;;;;;;12.48;100.00;101557.56;4981543;28;20047;-86
2021/08/31 05:57:04;;;;;;;3.45;2.13;;;;;;;12.55;100.00;101568.22;4987162;28;20050;-85
2021/08/31 05:59:40;;;;;;;5.80;2.25;;;;;;;12.65;100.00;101570.16;4984857;28;20065;-86
2021/08/31 06:02:13;;;;;;;3.42;2.22;;;;;;;12.65;100.00;101572.88;4988560;28;20051;-86
2021/08/31 06:04:46;;;;;;;2.90;1.92;;;;;;;12.69;100.00;101563.88;4986469;28;20053;-85
2021/08/31 06:07:20;;;;;;;3.00;2.20;;;;;;;12.83;100.00;101569.63;4995341;28;20406;-86
2021/08/31 06:09:54;;;;;;;4.03;2.20;;;;;;;12.92;100.00;101580.81;4993341;28;20043;-87
2021/08/31 06:12:27;;;;;;;3.65;2.05;;;;;;;13.02;100.00;101575.34;4993264;28;20053;-84
2021/08/31 06:15:03;;;;;;;4.10;1.95;;;;;;;13.07;100.00;101578.06;4987156;28;20039;-80
2021/08/31 06:17:37;;;;;;;3.83;2.00;;;;;;;13.15;100.00;101579.44;4981104;28;20447;-82
2021/08/31 06:20:09;;;;;;;3.63;2.10;;;;;;;13.15;100.00;101578.63;4984158;28;20050;-82
2021/08/31 06:22:44;;;;;;;4.43;2.40;;;;;;;13.33;100.00;101585.44;4983960;28;20062;-81
2021/08/31 06:25:17;;;;;;;3.22;2.03;;;;;;;13.36;100.00;101563.03;4986723;28;20294;-82
2021/08/31 06:27:51;;;;;;;2.85;2.10;;;;;;;13.37;100.00;101578.34;4991844;28;20061;-82
2021/08/31 06:30:25;;;;;;;3.42;2.13;;;;;;;13.45;100.00;101591.47;4988580;28;20053;-82
2021/08/31 06:32:59;;;;;;;4.00;2.30;;;;;;;13.50;100.00;101591.44;4976790;28;20507;-82
2021/08/31 06:35:27;;;;;;;4.38;2.10;;;;;;;13.63;100.00;101578.25;4984880;28;20050;-81
2021/08/31 06:38:00;;;;;;;3.03;2.00;;;;;;;13.68;100.00;101581.78;4983792;28;20049;-82
2021/08/31 06:40:33;;;;;;;3.63;2.30;;;;;;;13.71;100.00;101581.25;4989471;28;20395;-81
2021/08/31 06:43:06;;;;;;;3.42;1.80;;;;;;;13.82;100.00;101573.00;4979961;28;20507;-84
2021/08/31 06:45:42;;;;;;;3.42;1.70;;;;;;;13.86;100.00;101572.16;4953103;28;20697;-81
2021/08/31 06:48:15;;;;;;;3.35;1.80;;;;;;;13.89;100.00;101573.50;4985827;28;20048;-82
2021/08/31 06:50:48;;;;;;;3.72;1.77;;;;;;;13.95;100.00;101572.41;4977650;28;20042;-80
2021/08/31 06:53:21;;;;;;;2.22;1.50;;;;;;;13.99;100.00;101578.97;4975779;28;20069;-82
2021/08/31 06:55:55;;;;;;;3.20;1.70;;;;;;;14.11;100.00;101584.09;4975985;28;20062;-82
2021/08/31 06:58:28;;;;;;;2.97;1.80;;;;;;;14.19;100.00;101580.75;4975842;28;20073;-82
2021/08/31 07:01:02;;;;;;;3.17;1.83;;;;;;;14.18;100.00;101586.53;4982990;28;20061;-80
2021/08/31 07:03:35;;;;;;;2.58;1.55;;;;;;;14.24;100.00;101585.41;4968281;28;20050;-82
2021/08/31 07:06:09;;;;;;;2.63;1.67;;;;;;;14.31;100.00;101574.94;4966638;28;20478;-81
2021/08/31 07:08:42;;;;;;;2.20;1.50;;;;;;;14.43;100.00;101580.91;4964916;28;20061;-80
2021/08/31 07:11:15;;;;;;;2.70;1.70;;;;;;;14.55;100.00;101591.50;4973748;28;20073;-81
2021/08/31 07:13:49;;;;;;;1.77;1.50;;;;;;;14.69;100.00;101593.63;4966906;28;20485;-81
2021/08/31 07:16:18;;;;;;;2.30;1.52;;;;;;;14.67;100.00;101595.84;4964199;28;20061;-82
2021/08/31 07:18:49;;;;;;;3.13;1.42;;;;;;;14.83;99.61;101586.41;4965315;28;20529;-83
2021/08/31 07:21:23;;;;;;;2.50;1.20;;;;;;;14.99;99.50;101591.75;4966633;28;20054;-82
2021/08/31 07:23:56;;;;;;;1.50;1.10;;;;;;;15.04;98.65;101592.53;4971563;28;20302;-82
2021/08/31 07:26:29;;;;;;;1.63;1.20;;;;;;;15.03;97.14;101590.88;4966905;28;20516;-83
2021/08/31 07:29:02;;;;;;;1.75;1.10;;;;;;;15.12;97.82;101591.91;4967841;28;20058;-81
2021/08/31 07:31:33;;;;;;;1.65;1.33;;;;;;;15.17;98.49;101582.00;4967372;28;21362;-82
2021/08/31 07:34:06;;;;;;;1.42;1.20;;;;;;;15.19;96.06;101596.22;4968067;28;20804;-83
2021/08/31 07:36:40;;;;;;;1.10;1.00;;;;;;;15.30;95.77;101597.75;4967905;28;20503;-82
2021/08/31 07:39:08;;;;;;;2.03;1.20;;;;;;;15.29;92.97;101596.13;4964406;28;20058;-83
2021/08/31 07:41:41;;;;;;;2.50;1.20;;;;;;;15.44;93.34;101608.88;4964428;28;20695;-83
2021/08/31 07:44:15;;;;;;;1.10;1.00;;;;;;;15.41;91.92;101599.31;4966592;28;21948;-84
2021/08/31 07:46:51;;;;;;;1.60;1.10;;;;;;;15.35;89.96;101611.44;4956654;28;20054;-84
2021/08/31 07:49:24;;;;;;;1.80;1.08;;;;;;;15.40;89.63;101603.16;4970140;28;20069;-83
2021/08/31 07:51:57;;;;;;;2.38;1.13;;;;;;;15.59;89.60;101611.47;4972457;28;20061;-83
2021/08/31 07:54:31;;;;;;;1.98;1.10;;;;;;;15.65;90.30;101612.22;4968900;28;20522;-84
2021/08/31 07:57:04;;;;;;;1.52;1.20;;;;;;;15.81;92.64;101618.38;4972558;28;20458;-84
2021/08/31 07:59:39;;;;;;;1.55;1.00;;;;;;;15.65;89.57;101620.47;4970632;28;20054;-83
2021/08/31 08:02:13;;;;;;;2.38;1.13;;;;;;;15.77;90.57;101622.78;4971863;28;20054;-84
2021/08/31 08:04:46;;;;;;;1.90;1.25;;;;;;;15.76;89.69;101621.16;4977279;28;20058;-83
2021/08/31 08:07:20;;;;;;;1.75;1.20;;;;;;;15.83;88.88;101629.88;4971635;28;20045;-83
2021/08/31 08:09:53;;;;;;;1.42;1.20;;;;;;;15.93;88.28;101624.25;4971508;28;20062;-86
2021/08/31 08:12:26;;;;;;;2.53;1.30;;;;;;;15.87;88.91;101627.34;4972275;28;20985;-84
2021/08/31 08:14:59;;;;;;;2.40;1.27;;;;;;;16.03;89.30;101628.81;4968122;28;20065;-83
2021/08/31 08:17:34;;;;;;;1.20;1.00;;;;;;;16.11;90.71;101641.09;4966855;28;20112;-84
2021/08/31 08:20:10;;;;;;;1.55;1.10;;;;;;;16.10;89.12;101629.28;4969526;28;20058;-85
2021/08/31 08:22:39;;;;;;;1.20;1.10;;;;;;;16.26;90.23;101629.09;4971860;28;20055;-83
2021/08/31 08:25:14;;;;;;;1.48;1.08;;;;;;;16.24;88.59;101637.63;4969806;28;20054;-85
2021/08/31 08:27:44;;;;;;;1.15;1.00;;;;;;;16.00;86.78;101640.38;4976759;28;20054;-88
2021/08/31 08:30:17;;;;;;;1.40;1.10;;;;;;;16.24;86.35;101645.03;4970018;28;20513;-86
2021/08/31 08:32:52;;;;;;;1.45;1.00;;;;;;;16.35;85.75;101632.81;4972104;28;20053;-83
2021/08/31 08:35:25;;;;;;;1.23;1.00;;;;;;;16.31;83.44;101640.00;4969164;28;20066;-83
2021/08/31 08:37:59;;;;;;;1.23;1.00;;;;;;;16.30;83.78;101652.09;4973924;28;20051;-82
2021/08/31 08:40:28;;;;;;;1.10;1.00;;;;;;;16.32;84.71;101636.97;4972880;28;20058;-86
2021/08/31 08:42:56;;;;;;;1.10;1.00;;;;;;;16.40;83.44;101637.41;4971352;28;20065;-85
2021/08/31 08:45:30;;;;;;;1.27;0.90;;;;;;;16.59;81.28;101637.44;4957724;28;20043;-87
2021/08/31 08:48:07;;;;;;;0.70;0.70;;;;;;;16.41;80.29;101639.06;4977572;28;20063;-85
2021/08/31 08:50:40;;;;;;;1.58;0.88;;;;;;;16.40;82.24;101629.97;4976727;28;20062;-86
2021/08/31 08:53:17;;;;;;;1.50;0.90;;;;;;;16.55;80.63;101633.63;4975316;28;20490;-83
2021/08/31 08:55:53;;;;;;;1.05;0.82;;;;;;;16.57;81.07;101645.13;4973522;28;20050;-84
2021/08/31 08:58:21;;;;;;;1.27;0.60;;;;;;;16.60;76.78;101645.38;4973955;28;20062;-84
2021/08/31 09:01:02;;;;;;;1.85;0.80;;;;;;;16.55;78.24;101645.44;4969005;28;20054;-84
2021/08/31 09:03:39;;;;;;;0.85;0.70;;;;;;;16.54;78.91;101637.50;4972666;28;20054;-85
2021/08/31 09:06:15;;;;;;;1.02;0.90;;;;;;;16.60;80.53;101648.13;4970534;28;20418;-83
2021/08/31 09:08:55;;;;;;;0.80;0.80;;;;;;;16.66;80.01;101646.09;4966821;28;20062;-85
2021/08/31 09:11:26;;;;;;;1.08;0.82;;;;;;;16.64;77.35;101649.16;4968199;28;20069;-84
2021/08/31 09:14:24;;;;;;;0.88;0.88;;;;;;;16.76;79.03;101645.13;4971383;28;20062;-84
2021/08/31 09:16:59;;;;;;;2.42;0.88;;;;;;;16.71;77.83;101642.47;4972902;28;20058;-84
2021/08/31 09:19:36;;;;;;;0.85;0.85;;;;;;;16.79;77.95;101641.78;4966502;28;20065;-85
2021/08/31 09:22:15;;;;;;;0.90;0.90;;;;;;;16.91;77.73;101644.13;4973746;28;20046;-85
2021/08/31 09:24:59;;;;;;;0.80;0.80;;;;;;;17.01;78.95;101635.69;4970386;28;20061;-84
2021/08/31 09:27:34;;;;;;;0.98;0.80;;;;;;;16.98;74.40;101645.34;4969102;28;20061;-87
2021/08/31 09:30:15;;;;;;;1.00;0.90;;;;;;;16.99;75.42;101651.69;4971841;28;20054;-84
2021/08/31 09:33:03;;;;;;;0.98;0.80;;;;;;;17.08;77.04;101640.81;4971796;28;20077;-82
2021/08/31 09:35:41;;;;;;;0.70;0.70;;;;;;;17.25;77.21;101646.56;4973032;28;20073;-82
2021/08/31 09:38:16;;;;;;;0.70;0.70;;;;;;;17.33;71.64;101651.38;4974661;28;20596;-81
2021/08/31 09:40:53;;;;;;;0.73;0.73;;;;;;;17.06;72.27;101656.81;4971039;28;20051;-87
2021/08/31 09:43:30;;;;;;;;;;;;;;;17.05;72.48;101666.97;4975344;28;20058;-83
2021/08/31 09:45:58;;;;;;;2.08;0.70;;;;;;;17.10;70.88;101653.16;4964743;28;19929;-84
2021/08/31 09:48:32;;;;;;;0.93;0.80;;;;;;;17.24;75.31;101661.44;4977784;28;20050;-83
2021/08/31 09:51:01;;;;;;;0.80;0.80;;;;;;;17.38;74.04;101650.47;4975416;28;20053;-82
2021/08/31 09:53:36;;;;;;;1.55;0.70;;;;;;;17.55;69.21;101663.63;4979200;28;20502;-85
2021/08/31 09:56:11;;;;;;;0.70;0.70;;;;;;;17.46;70.16;101660.78;4975982;28;20502;-83
2021/08/31 09:58:46;;;;;;;0.85;0.70;;;;;;;17.42;70.75;101648.75;4971581;28;20058;-85
2021/08/31 10:01:14;;;;;;;0.60;0.60;;;;;;;17.43;68.70;101657.84;4973117;28;20077;-85
2021/08/31 10:03:43;;;;;;;0.70;0.70;;;;;;;17.41;68.27;101649.84;4978140;28;20060;-85
2021/08/31 10:06:18;;;;;;;0.60;0.60;;;;;;;17.37;66.91;101665.34;4980043;28;20065;-81
2021/08/31 10:08:52;;;;;;;0.75;0.75;;;;;;;17.42;68.11;101668.00;4978883;28;20474;-84
2021/08/31 10:11:20;;;;;;;0.60;0.60;;;;;;;17.54;70.00;101666.69;4975613;28;20062;-85
2021/08/31 10:13:49;;;;;;;0.65;0.65;;;;;;;17.60;69.40;101666.31;4974477;28;20846;-83
2021/08/31 10:16:18;;;;;;;0.90;0.60;;;;;;;17.67;68.37;101663.97;4974394;28;20063;-84
2021/08/31 10:18:46;;;;;;;0.70;0.70;;;;;;;17.79;65.44;101657.97;4975346;28;20055;-83
2021/08/31 10:21:24;;;;;;;0.70;0.70;;;;;;;17.64;64.74;101653.56;4971057;28;20054;-83
2021/08/31 10:23:59;;;;;;;0.50;0.50;;;;;;;17.73;64.49;101656.44;4975001;28;20053;-86
2021/08/31 10:26:34;;;;;;;1.33;0.90;;;;;;;17.80;63.08;101662.38;4970796;28;20058;-80
2021/08/31 10:29:30;;;;;;;0.90;0.60;;;;;;;17.92;62.22;101672.09;4974536;28;20054;-83
2021/08/31 10:32:04;;;;;;;0.70;0.70;;;;;;;17.66;61.63;101665.09;4974560;28;20061;-83
2021/08/31 10:34:45;;;;;;;0.70;0.70;;;;;;;17.78;63.47;101664.59;4977815;28;20053;-84
2021/08/31 10:37:16;;;;;;;1.70;0.70;;;;;;;17.70;61.97;101665.28;4968021;28;20080;-83
2021/08/31 10:39:52;;;;;;;0.90;0.60;;;;;;;17.83;61.50;101664.50;4971648;28;20057;-82
2021/08/31 10:42:42;;;;;;;0.60;0.60;;;;;;;18.01;61.95;101676.56;4973565;28;20313;-83
2021/08/31 10:45:30;;;;;;;0.60;0.60;;;;;;;17.89;62.36;101672.66;4957814;28;20050;-82
2021/08/31 10:47:59;;;;;;;0.50;0.50;;;;;;;17.92;64.85;101674.84;4968290;28;20058;-81
2021/08/31 10:50:29;;;;;;;0.70;0.70;;;;;;;17.82;66.34;101670.31;4973498;28;20128;-81
2021/08/31 10:53:07;;;;;;;1.17;0.70;;;;;;;18.04;65.85;101666.09;4971267;28;20050;-82
2021/08/31 10:55:45;;;;;;;1.38;0.80;;;;;;;17.75;65.76;101672.66;4975988;28;20082;-85
2021/08/31 10:58:47;;;;;;;0.63;0.60;;;;;;;17.91;64.46;101676.78;4976345;28;20061;-86
2021/08/31 11:01:18;;;;;;;1.02;0.70;;;;;;;18.23;65.12;101680.56;4978464;28;20446;-87
2021/08/31 11:03:55;;;;;;;0.60;0.60;;;;;;;17.90;64.49;101677.88;4973848;28;21223;-86
2021/08/31 11:06:40;;;;;;;1.27;0.80;;;;;;;18.15;63.84;101675.75;4974001;28;20652;-84
2021/08/31 11:09:19;;;;;;;0.60;0.60;;;;;;;18.06;63.90;101675.66;4977179;28;20462;-84
2021/08/31 11:12:16;;;;;;;0.82;0.70;;;;;;;17.74;65.59;101679.28;4974109;28;20046;-82
2021/08/31 11:14:52;;;;;;;;;;;;;;;17.60;67.87;101682.00;4975184;28;20046;-82
2021/08/31 11:17:35;;;;;;;1.58;0.73;;;;;;;17.65;66.77;101677.22;4973349;28;19922;-82
2021/08/31 11:20:10;;;;;;;;;;;;;;;17.96;65.10;101678.63;4977460;28;21517;-83
2021/08/31 11:22:45;;;;;;;0.65;0.65;;;;;;;18.01;65.75;101676.56;4971891;28;20397;-82
2021/08/31 11:25:15;;;;;;;0.68;0.63;;;;;;;18.14;64.36;101680.44;4973308;28;20509;-87
2021/08/31 11:27:54;;;;;;;0.80;0.55;;;;;;;18.02;66.47;101682.88;4978229;28;20065;-84
2021/08/31 11:30:26;;;;;;;1.30;0.70;;;;;;;17.74;64.48;101673.78;4973012;28;20076;-84
2021/08/31 11:33:18;;;;;;;0.88;0.68;;;;;;;17.65;65.54;101688.25;4970720;28;20057;-84
2021/08/31 11:35:54;;;;;;;1.45;0.80;;;;;;;17.88;65.34;101691.13;4973112;28;20057;-85
2021/08/31 11:38:31;;;;;;;1.98;0.70;;;;;;;18.15;64.52;101686.78;4970546;28;20057;-83
2021/08/31 11:41:14;;;;;;;0.70;0.68;;;;;;;18.30;62.82;101682.91;4970858;28;20065;-84
2021/08/31 11:43:50;;;;;;;2.65;0.70;;;;;;;18.30;63.59;101680.94;4975224;28;20061;-83
2021/08/31 11:46:25;;;;;;;0.60;0.60;;;;;;;18.59;65.37;101690.81;4964076;28;20050;-85
2021/08/31 11:49:09;;;;;;;0.70;0.70;;;;;;;18.45;66.99;101682.56;4973746;28;20050;-84
2021/08/31 11:51:45;;;;;;;1.33;0.70;;;;;;;18.34;65.33;101683.91;4974344;28;20054;-84